sensor_id;sensor_type;location;lat;lon;timestamp;temperature;humidity
3602;DHT22;1815;50.950;6.920;2023-03-01T00:01:31;2.50;62.10
3602;DHT22;1815;50.950;6.920;2023-03-01T00:03:58;2.50;62.30
3602;DHT22;1815;50.950;6.920;2023-03-01T00:06:25;2.50;62.50
3602;DHT22;1815;50.950;6.920;2023-03-01T00:08:51;2.50;62.60
3602;DHT22;1815;50.950;6.920;2023-03-01T00:11:19;2.40;62.80
3602;DHT22;1815;50.950;6.920;2023-03-01T00:13:47;2.40;63.10
3602;DHT22;1815;50.950;6.920;2023-03-01T00:16:17;2.40;63.40
3602;DHT22;1815;50.950;6.920;2023-03-01T00:18:44;2.40;63.90
3602;DHT22;1815;50.950;6.920;2023-03-01T00:21:09;2.40;63.90
3602;DHT22;1815;50.950;6.920;2023-03-01T00:23:36;2.30;63.90
3602;DHT22;1815;50.950;6.920;2023-03-01T00:26:06;2.30;64.00
3602;DHT22;1815;50.950;6.920;2023-03-01T00:28:32;2.30;64.70
3602;DHT22;1815;50.950;6.920;2023-03-01T00:31:05;2.20;64.80
3602;DHT22;1815;50.950;6.920;2023-03-01T00:33:31;2.30;65.50
3602;DHT22;1815;50.950;6.920;2023-03-01T00:36:00;2.20;65.30
3602;DHT22;1815;50.950;6.920;2023-03-01T00:38:27;2.20;65.70
3602;DHT22;1815;50.950;6.920;2023-03-01T00:40:52;2.20;65.70
3602;DHT22;1815;50.950;6.920;2023-03-01T00:43:18;2.20;66.00
3602;DHT22;1815;50.950;6.920;2023-03-01T00:45:44;2.10;66.20
3602;DHT22;1815;50.950;6.920;2023-03-01T00:48:10;2.10;66.20
3602;DHT22;1815;50.950;6.920;2023-03-01T00:50:35;2.10;66.40
3602;DHT22;1815;50.950;6.920;2023-03-01T00:53:01;2.10;66.60
3602;DHT22;1815;50.950;6.920;2023-03-01T00:55:27;2.10;66.90
3602;DHT22;1815;50.950;6.920;2023-03-01T00:57:53;2.00;66.80
3602;DHT22;1815;50.950;6.920;2023-03-01T01:00:19;2.10;67.30
3602;DHT22;1815;50.950;6.920;2023-03-01T01:02:47;2.00;67.40
3602;DHT22;1815;50.950;6.920;2023-03-01T01:05:13;2.00;67.50
3602;DHT22;1815;50.950;6.920;2023-03-01T01:07:39;2.00;67.30
3602;DHT22;1815;50.950;6.920;2023-03-01T01:10:05;2.00;67.50
3602;DHT22;1815;50.950;6.920;2023-03-01T01:12:32;2.00;68.10
3602;DHT22;1815;50.950;6.920;2023-03-01T01:14:58;2.00;68.20
3602;DHT22;1815;50.950;6.920;2023-03-01T01:17:24;2.00;68.40
3602;DHT22;1815;50.950;6.920;2023-03-01T01:19:49;2.00;68.50
3602;DHT22;1815;50.950;6.920;2023-03-01T01:22:15;2.00;68.80
3602;DHT22;1815;50.950;6.920;2023-03-01T01:24:41;2.00;69.30
3602;DHT22;1815;50.950;6.920;2023-03-01T01:27:06;2.00;68.80
3602;DHT22;1815;50.950;6.920;2023-03-01T01:29:32;2.00;69.30
3602;DHT22;1815;50.950;6.920;2023-03-01T01:31:58;2.00;69.30
3602;DHT22;1815;50.950;6.920;2023-03-01T01:34:24;2.00;69.10
3602;DHT22;1815;50.950;6.920;2023-03-01T01:36:53;2.00;69.30
3602;DHT22;1815;50.950;6.920;2023-03-01T01:39:20;2.00;70.10
3602;DHT22;1815;50.950;6.920;2023-03-01T01:41:46;2.00;69.70
3602;DHT22;1815;50.950;6.920;2023-03-01T01:44:22;2.00;70.10
3602;DHT22;1815;50.950;6.920;2023-03-01T01:49:29;2.00;70.80
3602;DHT22;1815;50.950;6.920;2023-03-01T01:52:11;2.00;70.80
3602;DHT22;1815;50.950;6.920;2023-03-01T01:54:40;2.00;71.80
3602;DHT22;1815;50.950;6.920;2023-03-01T01:57:10;2.00;70.80
3602;DHT22;1815;50.950;6.920;2023-03-01T01:59:38;2.00;70.90
3602;DHT22;1815;50.950;6.920;2023-03-01T02:02:04;2.00;71.10
3602;DHT22;1815;50.950;6.920;2023-03-01T02:04:53;2.00;70.80
3602;DHT22;1815;50.950;6.920;2023-03-01T02:07:23;2.00;72.10
3602;DHT22;1815;50.950;6.920;2023-03-01T02:09:51;1.90;71.20
3602;DHT22;1815;50.950;6.920;2023-03-01T02:12:20;1.90;71.50
3602;DHT22;1815;50.950;6.920;2023-03-01T02:14:47;1.90;71.70
3602;DHT22;1815;50.950;6.920;2023-03-01T02:17:17;1.90;71.50
3602;DHT22;1815;50.950;6.920;2023-03-01T02:30:39;1.80;72.70
3602;DHT22;1815;50.950;6.920;2023-03-01T02:33:26;1.80;71.90
3602;DHT22;1815;50.950;6.920;2023-03-01T02:35:54;1.80;72.20
3602;DHT22;1815;50.950;6.920;2023-03-01T02:38:22;1.80;72.30
3602;DHT22;1815;50.950;6.920;2023-03-01T02:40:50;1.80;72.40
3602;DHT22;1815;50.950;6.920;2023-03-01T02:43:18;1.80;72.80
3602;DHT22;1815;50.950;6.920;2023-03-01T02:45:52;1.80;72.80
3602;DHT22;1815;50.950;6.920;2023-03-01T02:48:19;1.70;73.40
3602;DHT22;1815;50.950;6.920;2023-03-01T02:51:15;1.70;73.20
3602;DHT22;1815;50.950;6.920;2023-03-01T02:54:24;1.70;73.90
3602;DHT22;1815;50.950;6.920;2023-03-01T02:56:51;1.70;74.70
3602;DHT22;1815;50.950;6.920;2023-03-01T02:59:22;1.60;73.30
3602;DHT22;1815;50.950;6.920;2023-03-01T03:01:49;1.60;73.80
3602;DHT22;1815;50.950;6.920;2023-03-01T03:04:17;1.60;74.10
3602;DHT22;1815;50.950;6.920;2023-03-01T03:06:47;1.60;74.50
3602;DHT22;1815;50.950;6.920;2023-03-01T03:09:14;1.50;74.30
3602;DHT22;1815;50.950;6.920;2023-03-01T03:11:40;1.50;74.70
3602;DHT22;1815;50.950;6.920;2023-03-01T03:14:16;1.50;74.70
3602;DHT22;1815;50.950;6.920;2023-03-01T03:16:47;1.50;75.80
3602;DHT22;1815;50.950;6.920;2023-03-01T03:19:14;1.40;75.10
3602;DHT22;1815;50.950;6.920;2023-03-01T03:21:40;1.40;75.30
3602;DHT22;1815;50.950;6.920;2023-03-01T03:24:05;1.40;75.60
3602;DHT22;1815;50.950;6.920;2023-03-01T03:26:31;1.40;75.70
3602;DHT22;1815;50.950;6.920;2023-03-01T03:28:57;1.40;75.80
3602;DHT22;1815;50.950;6.920;2023-03-01T03:31:23;1.40;75.90
3602;DHT22;1815;50.950;6.920;2023-03-01T03:33:49;1.30;76.10
3602;DHT22;1815;50.950;6.920;2023-03-01T03:36:19;1.30;76.40
3602;DHT22;1815;50.950;6.920;2023-03-01T03:38:46;1.30;77.10
3602;DHT22;1815;50.950;6.920;2023-03-01T03:41:12;1.30;77.00
3602;DHT22;1815;50.950;6.920;2023-03-01T03:43:39;1.20;77.70
3602;DHT22;1815;50.950;6.920;2023-03-01T03:46:07;1.20;77.90
3602;DHT22;1815;50.950;6.920;2023-03-01T03:48:41;1.20;77.90
3602;DHT22;1815;50.950;6.920;2023-03-01T03:51:10;1.20;78.40
3602;DHT22;1815;50.950;6.920;2023-03-01T03:53:36;1.20;78.30
3602;DHT22;1815;50.950;6.920;2023-03-01T03:56:02;1.10;78.30
3602;DHT22;1815;50.950;6.920;2023-03-01T03:58:29;1.10;78.60
3602;DHT22;1815;50.950;6.920;2023-03-01T04:00:56;1.10;79.00
3602;DHT22;1815;50.950;6.920;2023-03-01T04:03:23;1.10;79.20
3602;DHT22;1815;50.950;6.920;2023-03-01T04:05:50;1.00;79.90
3602;DHT22;1815;50.950;6.920;2023-03-01T04:08:17;1.00;79.20
3602;DHT22;1815;50.950;6.920;2023-03-01T04:10:47;1.00;79.40
3602;DHT22;1815;50.950;6.920;2023-03-01T04:13:17;1.00;79.80
3602;DHT22;1815;50.950;6.920;2023-03-01T04:15:52;1.00;80.10
3602;DHT22;1815;50.950;6.920;2023-03-01T04:18:19;0.90;79.90
3602;DHT22;1815;50.950;6.920;2023-03-01T04:20:46;0.90;80.60
3602;DHT22;1815;50.950;6.920;2023-03-01T04:23:17;0.90;80.60
3602;DHT22;1815;50.950;6.920;2023-03-01T04:25:49;0.90;81.30
3602;DHT22;1815;50.950;6.920;2023-03-01T04:28:23;0.80;81.10
3602;DHT22;1815;50.950;6.920;2023-03-01T04:30:53;0.80;81.00
3602;DHT22;1815;50.950;6.920;2023-03-01T04:33:19;0.80;81.20
3602;DHT22;1815;50.950;6.920;2023-03-01T04:35:45;0.80;82.20
3602;DHT22;1815;50.950;6.920;2023-03-01T04:38:11;0.80;83.10
3602;DHT22;1815;50.950;6.920;2023-03-01T04:40:37;0.70;82.80
3602;DHT22;1815;50.950;6.920;2023-03-01T04:43:04;0.70;83.30
3602;DHT22;1815;50.950;6.920;2023-03-01T04:45:33;0.70;83.30
3602;DHT22;1815;50.950;6.920;2023-03-01T04:48:00;0.70;83.40
3602;DHT22;1815;50.950;6.920;2023-03-01T04:50:27;0.70;83.50
3602;DHT22;1815;50.950;6.920;2023-03-01T04:52:53;0.60;83.60
3602;DHT22;1815;50.950;6.920;2023-03-01T04:55:19;0.60;83.90
3602;DHT22;1815;50.950;6.920;2023-03-01T04:57:45;0.60;84.00
3602;DHT22;1815;50.950;6.920;2023-03-01T05:00:13;0.60;83.80
3602;DHT22;1815;50.950;6.920;2023-03-01T05:02:52;0.60;84.30
3602;DHT22;1815;50.950;6.920;2023-03-01T05:05:31;0.50;85.00
3602;DHT22;1815;50.950;6.920;2023-03-01T05:08:00;0.50;85.30
3602;DHT22;1815;50.950;6.920;2023-03-01T05:10:28;0.50;84.60
3602;DHT22;1815;50.950;6.920;2023-03-01T05:12:55;0.50;84.80
3602;DHT22;1815;50.950;6.920;2023-03-01T05:15:23;0.50;84.80
3602;DHT22;1815;50.950;6.920;2023-03-01T05:17:52;0.40;85.30
3602;DHT22;1815;50.950;6.920;2023-03-01T05:20:18;0.40;85.60
3602;DHT22;1815;50.950;6.920;2023-03-01T05:22:43;0.40;85.70
3602;DHT22;1815;50.950;6.920;2023-03-01T05:25:09;0.40;85.90
3602;DHT22;1815;50.950;6.920;2023-03-01T05:27:35;0.40;86.00
3602;DHT22;1815;50.950;6.920;2023-03-01T05:30:02;0.30;86.20
3602;DHT22;1815;50.950;6.920;2023-03-01T05:32:47;0.30;86.50
3602;DHT22;1815;50.950;6.920;2023-03-01T05:35:15;0.30;87.10
3602;DHT22;1815;50.950;6.920;2023-03-01T05:37:47;0.30;87.10
3602;DHT22;1815;50.950;6.920;2023-03-01T05:40:16;0.30;87.80
3602;DHT22;1815;50.950;6.920;2023-03-01T05:42:52;0.30;87.60
3602;DHT22;1815;50.950;6.920;2023-03-01T05:45:18;0.30;88.20
3602;DHT22;1815;50.950;6.920;2023-03-01T05:47:45;0.30;87.70
3602;DHT22;1815;50.950;6.920;2023-03-01T05:50:21;0.30;88.20
3602;DHT22;1815;50.950;6.920;2023-03-01T05:52:50;0.30;88.60
3602;DHT22;1815;50.950;6.920;2023-03-01T05:55:20;0.30;88.30
3602;DHT22;1815;50.950;6.920;2023-03-01T05:57:47;0.30;89.20
3602;DHT22;1815;50.950;6.920;2023-03-01T06:00:15;0.30;88.90
3602;DHT22;1815;50.950;6.920;2023-03-01T06:02:40;0.30;89.00
3602;DHT22;1815;50.950;6.920;2023-03-01T06:05:08;0.30;89.40
3602;DHT22;1815;50.950;6.920;2023-03-01T06:07:35;0.30;89.50
3602;DHT22;1815;50.950;6.920;2023-03-01T06:10:01;0.30;89.40
3602;DHT22;1815;50.950;6.920;2023-03-01T06:12:33;0.30;89.80
3602;DHT22;1815;50.950;6.920;2023-03-01T06:14:59;0.30;90.20
3602;DHT22;1815;50.950;6.920;2023-03-01T06:17:26;0.30;90.00
3602;DHT22;1815;50.950;6.920;2023-03-01T06:19:54;0.30;90.10
3602;DHT22;1815;50.950;6.920;2023-03-01T06:22:19;0.30;90.20
3602;DHT22;1815;50.950;6.920;2023-03-01T06:24:45;0.30;90.30
3602;DHT22;1815;50.950;6.920;2023-03-01T06:27:11;0.30;90.30
3602;DHT22;1815;50.950;6.920;2023-03-01T06:29:36;0.40;90.20
3602;DHT22;1815;50.950;6.920;2023-03-01T06:32:03;0.30;90.40
3602;DHT22;1815;50.950;6.920;2023-03-01T06:34:30;0.40;90.50
3602;DHT22;1815;50.950;6.920;2023-03-01T06:36:56;0.30;90.60
3602;DHT22;1815;50.950;6.920;2023-03-01T06:39:22;0.40;90.80
3602;DHT22;1815;50.950;6.920;2023-03-01T06:41:47;0.40;90.90
3602;DHT22;1815;50.950;6.920;2023-03-01T06:44:13;0.40;90.90
3602;DHT22;1815;50.950;6.920;2023-03-01T06:46:39;0.40;91.10
3602;DHT22;1815;50.950;6.920;2023-03-01T06:49:06;0.50;91.20
3602;DHT22;1815;50.950;6.920;2023-03-01T06:51:36;0.50;91.30
3602;DHT22;1815;50.950;6.920;2023-03-01T06:54:06;0.50;91.40
3602;DHT22;1815;50.950;6.920;2023-03-01T06:56:32;0.50;91.60
3602;DHT22;1815;50.950;6.920;2023-03-01T06:58:58;0.60;91.60
3602;DHT22;1815;50.950;6.920;2023-03-01T07:01:24;0.60;91.70
3602;DHT22;1815;50.950;6.920;2023-03-01T07:03:49;0.70;91.80
3602;DHT22;1815;50.950;6.920;2023-03-01T07:06:15;0.70;91.80
3602;DHT22;1815;50.950;6.920;2023-03-01T07:08:41;0.70;91.90
3602;DHT22;1815;50.950;6.920;2023-03-01T07:11:07;0.80;92.10
3602;DHT22;1815;50.950;6.920;2023-03-01T07:13:33;0.90;92.20
3602;DHT22;1815;50.950;6.920;2023-03-01T07:15:59;0.90;92.40
3602;DHT22;1815;50.950;6.920;2023-03-01T07:18:25;1.00;92.40
3602;DHT22;1815;50.950;6.920;2023-03-01T07:20:50;1.10;92.40
3602;DHT22;1815;50.950;6.920;2023-03-01T07:23:16;1.20;92.50
3602;DHT22;1815;50.950;6.920;2023-03-01T07:25:42;1.20;92.50
3602;DHT22;1815;50.950;6.920;2023-03-01T07:28:08;1.30;92.30
3602;DHT22;1815;50.950;6.920;2023-03-01T07:30:33;1.40;92.30
3602;DHT22;1815;50.950;6.920;2023-03-01T07:32:59;1.40;92.20
3602;DHT22;1815;50.950;6.920;2023-03-01T07:35:26;1.50;92.30
3602;DHT22;1815;50.950;6.920;2023-03-01T07:37:52;1.60;92.40
3602;DHT22;1815;50.950;6.920;2023-03-01T07:40:18;1.70;92.20
3602;DHT22;1815;50.950;6.920;2023-03-01T07:42:44;1.80;92.30
3602;DHT22;1815;50.950;6.920;2023-03-01T07:45:10;1.80;92.20
3602;DHT22;1815;50.950;6.920;2023-03-01T07:47:36;1.90;92.30
3602;DHT22;1815;50.950;6.920;2023-03-01T07:50:03;2.00;92.40
3602;DHT22;1815;50.950;6.920;2023-03-01T07:52:29;2.10;92.30
3602;DHT22;1815;50.950;6.920;2023-03-01T07:54:56;2.20;92.50
3602;DHT22;1815;50.950;6.920;2023-03-01T07:57:22;2.30;92.60
3602;DHT22;1815;50.950;6.920;2023-03-01T07:59:48;2.40;92.50
3602;DHT22;1815;50.950;6.920;2023-03-01T08:02:13;2.40;92.40
3602;DHT22;1815;50.950;6.920;2023-03-01T08:04:41;2.50;92.60
3602;DHT22;1815;50.950;6.920;2023-03-01T08:07:07;2.60;92.60
3602;DHT22;1815;50.950;6.920;2023-03-01T08:09:36;2.70;92.70
3602;DHT22;1815;50.950;6.920;2023-03-01T08:12:03;2.90;92.70
3602;DHT22;1815;50.950;6.920;2023-03-01T08:14:30;3.00;92.90
3602;DHT22;1815;50.950;6.920;2023-03-01T08:16:56;3.10;92.70
3602;DHT22;1815;50.950;6.920;2023-03-01T08:19:22;3.20;92.60
3602;DHT22;1815;50.950;6.920;2023-03-01T08:21:48;3.30;92.70
3602;DHT22;1815;50.950;6.920;2023-03-01T08:24:14;3.50;92.90
3602;DHT22;1815;50.950;6.920;2023-03-01T08:26:39;3.70;93.00
3602;DHT22;1815;50.950;6.920;2023-03-01T08:29:05;4.40;93.70
3602;DHT22;1815;50.950;6.920;2023-03-01T08:31:37;5.10;95.00
3602;DHT22;1815;50.950;6.920;2023-03-01T08:34:06;6.10;96.30
3602;DHT22;1815;50.950;6.920;2023-03-01T08:36:39;7.30;97.10
3602;DHT22;1815;50.950;6.920;2023-03-01T08:39:06;8.50;97.60
3602;DHT22;1815;50.950;6.920;2023-03-01T08:41:33;9.80;98.40
3602;DHT22;1815;50.950;6.920;2023-03-01T08:43:58;11.10;97.70
3602;DHT22;1815;50.950;6.920;2023-03-01T08:46:26;12.20;97.10
3602;DHT22;1815;50.950;6.920;2023-03-01T08:48:52;13.40;96.30
3602;DHT22;1815;50.950;6.920;2023-03-01T08:51:19;14.30;90.30
3602;DHT22;1815;50.950;6.920;2023-03-01T08:53:45;15.20;92.10
3602;DHT22;1815;50.950;6.920;2023-03-01T08:56:11;16.00;90.40
3602;DHT22;1815;50.950;6.920;2023-03-01T08:58:37;16.70;89.80
3602;DHT22;1815;50.950;6.920;2023-03-01T09:01:09;17.50;88.00
3602;DHT22;1815;50.950;6.920;2023-03-01T09:03:35;18.10;85.90
3602;DHT22;1815;50.950;6.920;2023-03-01T09:06:01;18.70;84.40
3602;DHT22;1815;50.950;6.920;2023-03-01T09:08:28;19.30;73.90
3602;DHT22;1815;50.950;6.920;2023-03-01T09:10:54;19.80;74.00
3602;DHT22;1815;50.950;6.920;2023-03-01T09:13:19;20.20;71.60
3602;DHT22;1815;50.950;6.920;2023-03-01T09:15:45;20.40;60.60
3602;DHT22;1815;50.950;6.920;2023-03-01T09:18:11;20.20;59.80
3602;DHT22;1815;50.950;6.920;2023-03-01T09:20:37;19.80;55.40
3602;DHT22;1815;50.950;6.920;2023-03-01T09:23:02;19.50;51.20
3602;DHT22;1815;50.950;6.920;2023-03-01T09:25:28;19.30;52.20
3602;DHT22;1815;50.950;6.920;2023-03-01T09:27:54;19.00;49.20
3602;DHT22;1815;50.950;6.920;2023-03-01T09:30:21;18.90;53.20
3602;DHT22;1815;50.950;6.920;2023-03-01T09:32:47;19.00;49.90
3602;DHT22;1815;50.950;6.920;2023-03-01T09:35:12;19.00;51.20
3602;DHT22;1815;50.950;6.920;2023-03-01T09:37:38;19.10;52.10
3602;DHT22;1815;50.950;6.920;2023-03-01T09:40:17;19.20;52.00
3602;DHT22;1815;50.950;6.920;2023-03-01T09:45:33;19.60;51.70
3602;DHT22;1815;50.950;6.920;2023-03-01T09:48:01;19.60;50.70
3602;DHT22;1815;50.950;6.920;2023-03-01T09:50:33;19.80;51.20
3602;DHT22;1815;50.950;6.920;2023-03-01T10:04:46;21.20;50.10
3602;DHT22;1815;50.950;6.920;2023-03-01T10:09:43;21.60;47.60
3602;DHT22;1815;50.950;6.920;2023-03-01T10:12:16;21.70;48.00
3602;DHT22;1815;50.950;6.920;2023-03-01T10:14:57;21.40;46.70
3602;DHT22;1815;50.950;6.920;2023-03-01T10:17:57;21.20;43.00
3602;DHT22;1815;50.950;6.920;2023-03-01T10:20:33;21.00;45.90
3602;DHT22;1815;50.950;6.920;2023-03-01T10:23:00;20.60;41.70
3602;DHT22;1815;50.950;6.920;2023-03-01T10:25:56;20.30;42.70
3602;DHT22;1815;50.950;6.920;2023-03-01T10:28:37;20.00;43.50
3602;DHT22;1815;50.950;6.920;2023-03-01T10:31:15;19.80;43.30
3602;DHT22;1815;50.950;6.920;2023-03-01T10:33:41;19.40;42.10
3602;DHT22;1815;50.950;6.920;2023-03-01T10:36:08;19.10;42.70
3602;DHT22;1815;50.950;6.920;2023-03-01T10:38:55;18.70;42.70
3602;DHT22;1815;50.950;6.920;2023-03-01T10:41:24;18.20;42.00
3602;DHT22;1815;50.950;6.920;2023-03-01T10:43:57;18.00;42.10
3602;DHT22;1815;50.950;6.920;2023-03-01T10:46:33;17.70;42.90
3602;DHT22;1815;50.950;6.920;2023-03-01T10:49:12;17.70;42.90
3602;DHT22;1815;50.950;6.920;2023-03-01T10:51:40;17.70;42.70
3602;DHT22;1815;50.950;6.920;2023-03-01T10:54:16;17.90;44.10
3602;DHT22;1815;50.950;6.920;2023-03-01T10:56:55;17.60;42.00
3602;DHT22;1815;50.950;6.920;2023-03-01T10:59:37;17.30;40.70
3602;DHT22;1815;50.950;6.920;2023-03-01T11:02:28;17.30;41.70
3602;DHT22;1815;50.950;6.920;2023-03-01T11:05:13;17.30;42.00
3602;DHT22;1815;50.950;6.920;2023-03-01T11:07:54;17.40;43.60
3602;DHT22;1815;50.950;6.920;2023-03-01T11:10:35;17.60;44.00
3602;DHT22;1815;50.950;6.920;2023-03-01T11:13:18;17.90;45.10
3602;DHT22;1815;50.950;6.920;2023-03-01T11:16:06;18.20;45.10
3602;DHT22;1815;50.950;6.920;2023-03-01T11:18:32;18.40;44.10
3602;DHT22;1815;50.950;6.920;2023-03-01T11:20:59;18.30;44.00
3602;DHT22;1815;50.950;6.920;2023-03-01T11:23:28;18.40;44.80
3602;DHT22;1815;50.950;6.920;2023-03-01T11:25:56;18.40;42.40
3602;DHT22;1815;50.950;6.920;2023-03-01T11:28:22;18.40;43.70
3602;DHT22;1815;50.950;6.920;2023-03-01T11:31:03;18.40;44.30
3602;DHT22;1815;50.950;6.920;2023-03-01T11:36:07;18.60;44.20
3602;DHT22;1815;50.950;6.920;2023-03-01T11:38:38;18.60;43.40
3602;DHT22;1815;50.950;6.920;2023-03-01T12:06:05;18.10;41.80
3602;DHT22;1815;50.950;6.920;2023-03-01T12:20:11;17.70;41.70
3602;DHT22;1815;50.950;6.920;2023-03-01T12:33:38;16.90;41.00
3602;DHT22;1815;50.950;6.920;2023-03-01T12:39:07;16.70;41.40
3602;DHT22;1815;50.950;6.920;2023-03-01T12:45:23;16.40;41.70
3602;DHT22;1815;50.950;6.920;2023-03-01T12:48:23;16.30;41.10
3602;DHT22;1815;50.950;6.920;2023-03-01T12:51:15;16.10;40.70
3602;DHT22;1815;50.950;6.920;2023-03-01T12:53:47;15.80;40.50
3602;DHT22;1815;50.950;6.920;2023-03-01T12:56:34;15.40;40.10
3602;DHT22;1815;50.950;6.920;2023-03-01T12:59:15;14.90;39.80
3602;DHT22;1815;50.950;6.920;2023-03-01T13:02:13;14.50;39.40
3602;DHT22;1815;50.950;6.920;2023-03-01T13:08:39;13.30;39.30
3602;DHT22;1815;50.950;6.920;2023-03-01T13:11:19;12.90;39.40
3602;DHT22;1815;50.950;6.920;2023-03-01T13:13:46;12.50;39.50
3602;DHT22;1815;50.950;6.920;2023-03-01T13:16:41;12.20;39.60
3602;DHT22;1815;50.950;6.920;2023-03-01T13:19:20;11.90;40.00
3602;DHT22;1815;50.950;6.920;2023-03-01T13:21:48;11.70;40.00
3602;DHT22;1815;50.950;6.920;2023-03-01T13:24:37;11.40;39.90
3602;DHT22;1815;50.950;6.920;2023-03-01T13:29:58;11.00;40.10
3602;DHT22;1815;50.950;6.920;2023-03-01T13:32:37;10.80;40.40
3602;DHT22;1815;50.950;6.920;2023-03-01T13:47:24;10.40;41.10
3602;DHT22;1815;50.950;6.920;2023-03-01T13:49:59;10.40;41.40
3602;DHT22;1815;50.950;6.920;2023-03-01T13:52:45;10.30;41.40
3602;DHT22;1815;50.950;6.920;2023-03-01T13:55:51;10.30;41.50
3602;DHT22;1815;50.950;6.920;2023-03-01T13:58:24;10.30;41.70
3602;DHT22;1815;50.950;6.920;2023-03-01T14:01:05;10.30;41.80
3602;DHT22;1815;50.950;6.920;2023-03-01T14:03:33;10.30;41.90
3602;DHT22;1815;50.950;6.920;2023-03-01T14:06:03;10.30;41.90
3602;DHT22;1815;50.950;6.920;2023-03-01T14:08:32;10.30;41.80
3602;DHT22;1815;50.950;6.920;2023-03-01T14:19:24;10.40;42.20
3602;DHT22;1815;50.950;6.920;2023-03-01T14:24:56;10.40;42.10
3602;DHT22;1815;50.950;6.920;2023-03-01T14:27:26;10.50;42.30
3602;DHT22;1815;50.950;6.920;2023-03-01T14:30:00;10.50;42.30
3602;DHT22;1815;50.950;6.920;2023-03-01T14:32:28;10.50;42.30
3602;DHT22;1815;50.950;6.920;2023-03-01T14:34:55;10.50;42.60
3602;DHT22;1815;50.950;6.920;2023-03-01T14:37:26;10.60;42.70
3602;DHT22;1815;50.950;6.920;2023-03-01T14:39:53;10.60;43.50
3602;DHT22;1815;50.950;6.920;2023-03-01T14:42:21;10.60;42.90
3602;DHT22;1815;50.950;6.920;2023-03-01T14:44:50;10.60;43.10
3602;DHT22;1815;50.950;6.920;2023-03-01T14:47:31;10.60;43.50
3602;DHT22;1815;50.950;6.920;2023-03-01T14:52:45;10.60;43.70
3602;DHT22;1815;50.950;6.920;2023-03-01T14:55:38;10.60;43.80
3602;DHT22;1815;50.950;6.920;2023-03-01T14:58:12;10.50;43.70
3602;DHT22;1815;50.950;6.920;2023-03-01T15:01:02;10.50;43.70
3602;DHT22;1815;50.950;6.920;2023-03-01T15:03:38;10.50;44.00
3602;DHT22;1815;50.950;6.920;2023-03-01T15:06:07;10.50;44.00
3602;DHT22;1815;50.950;6.920;2023-03-01T15:08:34;10.40;44.00
3602;DHT22;1815;50.950;6.920;2023-03-01T15:11:16;10.40;44.10
3602;DHT22;1815;50.950;6.920;2023-03-01T15:13:43;10.40;44.40
3602;DHT22;1815;50.950;6.920;2023-03-01T15:18:48;10.30;44.60
3602;DHT22;1815;50.950;6.920;2023-03-01T15:21:38;10.30;44.80
3602;DHT22;1815;50.950;6.920;2023-03-01T15:24:14;10.30;44.80
3602;DHT22;1815;50.950;6.920;2023-03-01T15:29:22;10.20;45.00
3602;DHT22;1815;50.950;6.920;2023-03-01T15:35:00;10.20;45.60
3602;DHT22;1815;50.950;6.920;2023-03-01T15:37:45;10.10;45.40
3602;DHT22;1815;50.950;6.920;2023-03-01T15:40:25;10.10;45.50
3602;DHT22;1815;50.950;6.920;2023-03-01T15:43:02;10.10;45.70
3602;DHT22;1815;50.950;6.920;2023-03-01T15:45:30;10.00;45.70
3602;DHT22;1815;50.950;6.920;2023-03-01T15:48:30;10.00;45.70
3602;DHT22;1815;50.950;6.920;2023-03-01T15:50:58;9.90;46.60
3602;DHT22;1815;50.950;6.920;2023-03-01T15:54:05;9.90;46.40
3602;DHT22;1815;50.950;6.920;2023-03-01T15:56:32;9.80;47.20
3602;DHT22;1815;50.950;6.920;2023-03-01T15:59:02;9.80;46.70
3602;DHT22;1815;50.950;6.920;2023-03-01T16:01:29;9.80;46.70
3602;DHT22;1815;50.950;6.920;2023-03-01T16:03:55;9.80;46.70
3602;DHT22;1815;50.950;6.920;2023-03-01T16:06:21;9.70;46.90
3602;DHT22;1815;50.950;6.920;2023-03-01T16:08:47;9.70;46.60
3602;DHT22;1815;50.950;6.920;2023-03-01T16:11:18;9.70;46.70
3602;DHT22;1815;50.950;6.920;2023-03-01T16:13:44;9.60;46.60
3602;DHT22;1815;50.950;6.920;2023-03-01T16:16:12;9.60;46.70
3602;DHT22;1815;50.950;6.920;2023-03-01T16:18:41;9.50;47.00
3602;DHT22;1815;50.950;6.920;2023-03-01T16:21:18;9.50;46.80
3602;DHT22;1815;50.950;6.920;2023-03-01T16:27:27;9.50;47.10
3602;DHT22;1815;50.950;6.920;2023-03-01T16:29:53;9.50;47.00
3602;DHT22;1815;50.950;6.920;2023-03-01T16:32:19;9.40;47.00
3602;DHT22;1815;50.950;6.920;2023-03-01T16:34:44;9.30;47.20
3602;DHT22;1815;50.950;6.920;2023-03-01T16:37:10;9.30;47.10
3602;DHT22;1815;50.950;6.920;2023-03-01T16:39:38;9.30;47.30
3602;DHT22;1815;50.950;6.920;2023-03-01T16:42:04;9.20;47.30
3602;DHT22;1815;50.950;6.920;2023-03-01T16:44:29;9.20;47.40
3602;DHT22;1815;50.950;6.920;2023-03-01T16:46:55;9.20;47.30
3602;DHT22;1815;50.950;6.920;2023-03-01T16:49:21;9.10;47.30
3602;DHT22;1815;50.950;6.920;2023-03-01T16:51:47;9.10;47.40
3602;DHT22;1815;50.950;6.920;2023-03-01T16:54:12;9.00;47.40
3602;DHT22;1815;50.950;6.920;2023-03-01T16:56:38;9.00;47.60
3602;DHT22;1815;50.950;6.920;2023-03-01T16:59:05;8.90;47.40
3602;DHT22;1815;50.950;6.920;2023-03-01T17:01:31;8.90;47.40
3602;DHT22;1815;50.950;6.920;2023-03-01T17:04:03;8.80;47.30
3602;DHT22;1815;50.950;6.920;2023-03-01T17:06:29;8.70;47.30
3602;DHT22;1815;50.950;6.920;2023-03-01T17:08:56;8.70;47.60
3602;DHT22;1815;50.950;6.920;2023-03-01T17:11:22;8.60;47.90
3602;DHT22;1815;50.950;6.920;2023-03-01T17:13:48;8.50;47.70
3602;DHT22;1815;50.950;6.920;2023-03-01T17:16:15;8.50;47.50
3602;DHT22;1815;50.950;6.920;2023-03-01T17:18:42;8.40;47.50
3602;DHT22;1815;50.950;6.920;2023-03-01T17:21:08;8.40;47.50
3602;DHT22;1815;50.950;6.920;2023-03-01T17:23:39;8.30;48.10
3602;DHT22;1815;50.950;6.920;2023-03-01T17:26:05;8.30;47.60
3602;DHT22;1815;50.950;6.920;2023-03-01T17:28:33;8.20;47.50
3602;DHT22;1815;50.950;6.920;2023-03-01T17:31:00;8.20;47.80
3602;DHT22;1815;50.950;6.920;2023-03-01T17:33:27;8.10;47.70
3602;DHT22;1815;50.950;6.920;2023-03-01T17:35:56;8.10;47.70
3602;DHT22;1815;50.950;6.920;2023-03-01T17:38:22;8.00;47.70
3602;DHT22;1815;50.950;6.920;2023-03-01T17:40:48;7.90;47.90
3602;DHT22;1815;50.950;6.920;2023-03-01T17:43:15;7.90;47.90
3602;DHT22;1815;50.950;6.920;2023-03-01T17:45:42;7.80;48.10
3602;DHT22;1815;50.950;6.920;2023-03-01T17:48:12;7.80;48.10
3602;DHT22;1815;50.950;6.920;2023-03-01T17:50:38;7.70;48.20
3602;DHT22;1815;50.950;6.920;2023-03-01T17:53:07;7.70;48.20
3602;DHT22;1815;50.950;6.920;2023-03-01T17:55:35;7.60;48.40
3602;DHT22;1815;50.950;6.920;2023-03-01T17:58:02;7.60;48.20
3602;DHT22;1815;50.950;6.920;2023-03-01T18:00:28;7.50;48.10
3602;DHT22;1815;50.950;6.920;2023-03-01T18:02:54;7.50;48.40
3602;DHT22;1815;50.950;6.920;2023-03-01T18:05:20;7.40;48.50
3602;DHT22;1815;50.950;6.920;2023-03-01T18:07:45;7.40;48.60
3602;DHT22;1815;50.950;6.920;2023-03-01T18:10:11;7.30;48.50
3602;DHT22;1815;50.950;6.920;2023-03-01T18:12:38;7.30;48.50
3602;DHT22;1815;50.950;6.920;2023-03-01T18:15:05;7.30;48.60
3602;DHT22;1815;50.950;6.920;2023-03-01T18:17:31;7.20;48.50
3602;DHT22;1815;50.950;6.920;2023-03-01T18:19:57;7.20;48.70
3602;DHT22;1815;50.950;6.920;2023-03-01T18:22:23;7.20;48.70
3602;DHT22;1815;50.950;6.920;2023-03-01T18:24:49;7.10;48.80
3602;DHT22;1815;50.950;6.920;2023-03-01T18:27:15;7.10;48.80
3602;DHT22;1815;50.950;6.920;2023-03-01T18:29:41;7.10;48.80
3602;DHT22;1815;50.950;6.920;2023-03-01T18:32:06;7.00;48.90
3602;DHT22;1815;50.950;6.920;2023-03-01T18:34:32;7.00;49.10
3602;DHT22;1815;50.950;6.920;2023-03-01T18:36:59;7.00;48.90
3602;DHT22;1815;50.950;6.920;2023-03-01T18:39:28;6.90;48.90
3602;DHT22;1815;50.950;6.920;2023-03-01T18:41:54;6.90;48.80